createdAt,value
2023-02-05T00:00:24.060Z,2.42
2023-02-05T00:03:16.563Z,1.77
2023-02-05T00:05:49.445Z,2.67
2023-02-05T00:08:21.965Z,1.95
2023-02-05T00:10:54.908Z,2.13
2023-02-05T00:13:27.711Z,1.80
2023-02-05T00:16:00.618Z,2.17
2023-02-05T00:18:33.164Z,2.90
2023-02-05T00:21:06.681Z,1.77
2023-02-05T00:23:39.423Z,1.50
2023-02-05T00:26:14.502Z,1.98
2023-02-05T00:28:49.161Z,2.13
2023-02-05T00:31:27.312Z,1.95
2023-02-05T00:34:03.022Z,1.70
2023-02-05T00:36:37.605Z,2.08
2023-02-05T00:39:11.703Z,2.47
2023-02-05T00:41:45.316Z,2.33
2023-02-05T00:44:17.956Z,1.33
2023-02-05T00:46:50.898Z,1.20
2023-02-05T00:49:23.506Z,2.10
2023-02-05T00:51:56.802Z,1.95
2023-02-05T00:54:29.347Z,1.58
2023-02-05T00:57:02.318Z,1.85
2023-02-05T00:59:35.392Z,1.75
2023-02-05T01:02:10.919Z,1.45
2023-02-05T01:04:43.551Z,2.03
2023-02-05T01:07:16.798Z,1.60
2023-02-05T01:09:49.279Z,1.80
2023-02-05T01:12:22.135Z,2.33
2023-02-05T01:14:54.793Z,1.77
2023-02-05T01:17:28.101Z,1.65
2023-02-05T01:20:00.679Z,1.95
2023-02-05T01:22:33.710Z,2.10
2023-02-05T01:25:13.110Z,2.50
2023-02-05T01:27:46.165Z,2.03
2023-02-05T01:30:19.896Z,3.33
2023-02-05T01:32:52.766Z,2.33
2023-02-05T01:35:25.381Z,2.53
2023-02-05T01:37:58.281Z,1.92
2023-02-05T01:40:30.880Z,2.17
2023-02-05T01:43:03.840Z,1.92
2023-02-05T01:45:36.559Z,2.13
2023-02-05T01:48:09.996Z,2.42
2023-02-05T01:50:47.272Z,2.25
2023-02-05T01:53:23.572Z,2.08
2023-02-05T01:55:58.456Z,1.60
2023-02-05T01:58:34.298Z,1.85
2023-02-05T02:01:07.142Z,2.38
2023-02-05T02:03:40.895Z,2.10
2023-02-05T02:06:15.073Z,1.90
2023-02-05T02:08:48.089Z,2.00
2023-02-05T02:11:24.366Z,1.45
2023-02-05T02:13:59.911Z,2.17
2023-02-05T02:16:33.495Z,2.33
2023-02-05T02:19:10.559Z,1.85
2023-02-05T02:21:52.900Z,2.83
2023-02-05T02:24:44.737Z,5.38
2023-02-05T02:27:27.439Z,2.50
2023-02-05T02:30:06.710Z,2.15
2023-02-05T02:32:41.879Z,3.08
2023-02-05T02:35:22.849Z,2.35
2023-02-05T02:37:58.894Z,2.37
2023-02-05T02:40:36.483Z,2.83
2023-02-05T02:43:19.581Z,2.25
2023-02-05T02:46:04.889Z,2.28
2023-02-05T02:48:40.111Z,2.33
2023-02-05T02:51:14.025Z,1.80
2023-02-05T02:53:48.235Z,1.98
2023-02-05T02:56:21.799Z,2.25
2023-02-05T02:58:59.786Z,3.08
2023-02-05T03:01:35.639Z,1.80
2023-02-05T03:04:18.073Z,2.17
2023-02-05T03:06:52.732Z,1.63
2023-02-05T03:09:40.004Z,2.75
2023-02-05T03:12:13.417Z,2.00
2023-02-05T03:14:46.417Z,3.38
2023-02-05T03:17:20.155Z,3.38
2023-02-05T03:19:58.230Z,2.10
2023-02-05T03:22:32.107Z,1.73
2023-02-05T03:25:05.556Z,3.08
2023-02-05T03:27:39.309Z,2.22
2023-02-05T03:30:12.744Z,1.80
2023-02-05T03:32:52.199Z,2.60
2023-02-05T03:35:31.741Z,2.50
2023-02-05T03:38:14.376Z,2.22
2023-02-05T03:43:32.497Z,2.25
2023-02-05T03:46:18.430Z,2.42
2023-02-05T03:48:52.011Z,1.55
2023-02-05T03:51:28.679Z,1.85
2023-02-05T03:54:11.996Z,2.78
2023-02-05T03:57:01.652Z,1.70
2023-02-05T03:59:38.086Z,1.98
2023-02-05T04:02:13.331Z,2.67
2023-02-05T04:05:00.815Z,2.17
2023-02-05T04:07:34.705Z,2.30
2023-02-05T04:10:08.958Z,2.70
2023-02-05T04:12:41.502Z,2.22
2023-02-05T04:15:14.587Z,2.28
2023-02-05T04:17:51.592Z,2.05
2023-02-05T04:20:25.236Z,1.20
2023-02-05T04:22:58.175Z,1.83
2023-02-05T04:25:32.333Z,1.65
2023-02-05T04:28:06.847Z,1.80
2023-02-05T04:30:40.484Z,1.60
2023-02-05T04:33:23.714Z,1.10
2023-02-05T04:36:00.240Z,2.05
2023-02-05T04:38:32.855Z,1.48
2023-02-05T04:41:08.385Z,1.70
2023-02-05T04:43:40.971Z,1.85
2023-02-05T04:46:13.906Z,1.77
2023-02-05T04:48:46.372Z,2.20
2023-02-05T04:51:19.252Z,2.53
2023-02-05T04:53:51.956Z,1.00
2023-02-05T04:56:24.808Z,2.13
2023-02-05T04:58:57.884Z,1.92
2023-02-05T05:01:34.439Z,1.60
2023-02-05T05:04:13.833Z,1.67
2023-02-05T05:06:51.140Z,1.52
2023-02-05T05:09:24.507Z,1.45
2023-02-05T05:11:57.371Z,1.60
2023-02-05T05:14:29.936Z,2.55
2023-02-05T05:17:02.758Z,2.10
2023-02-05T05:19:35.305Z,1.45
2023-02-05T05:22:08.118Z,1.52
2023-02-05T05:24:40.663Z,1.77
2023-02-05T05:27:13.590Z,1.65
2023-02-05T05:29:46.869Z,1.98
2023-02-05T05:32:19.925Z,1.42
2023-02-05T05:34:52.510Z,1.80
2023-02-05T05:37:25.507Z,1.60
2023-02-05T05:40:16.807Z,1.58
2023-02-05T05:45:40.481Z,1.85
2023-02-05T05:48:13.343Z,1.88
2023-02-05T05:50:46.866Z,1.70
2023-02-05T05:53:19.747Z,1.98
2023-02-05T05:55:52.268Z,2.47
2023-02-05T05:58:25.211Z,1.25
2023-02-05T06:00:57.774Z,1.90
2023-02-05T06:03:30.883Z,1.77
2023-02-05T06:06:04.602Z,1.17
2023-02-05T06:08:37.800Z,1.75
2023-02-05T06:11:10.307Z,2.38
2023-02-05T06:13:43.324Z,2.22
2023-02-05T06:16:15.855Z,1.67
2023-02-05T06:18:48.760Z,1.15
2023-02-05T06:21:21.489Z,1.67
2023-02-05T06:23:55.736Z,1.48
2023-02-05T06:26:32.304Z,1.92
2023-02-05T06:29:05.377Z,1.50
2023-02-05T06:31:38.067Z,1.38
2023-02-05T06:34:11.110Z,2.20
2023-02-05T06:36:43.651Z,1.85
2023-02-05T06:39:16.622Z,1.83
2023-02-05T06:41:49.468Z,2.38
2023-02-05T06:44:22.572Z,2.20
2023-02-05T06:46:55.108Z,1.73
2023-02-05T06:49:28.133Z,2.72
2023-02-05T06:52:00.676Z,2.20
2023-02-05T06:54:33.602Z,1.80
2023-02-05T06:57:06.138Z,2.55
2023-02-05T06:59:39.021Z,3.20
2023-02-05T07:02:13.807Z,3.22
2023-02-05T07:04:46.860Z,4.22
2023-02-05T07:07:19.420Z,3.08
2023-02-05T07:09:52.365Z,2.85
2023-02-05T07:12:25.396Z,9.35
2023-02-05T07:14:58.370Z,3.20
2023-02-05T07:17:31.041Z,7.95
2023-02-05T07:20:04.054Z,18.05
2023-02-05T07:22:36.624Z,19.05
2023-02-05T07:25:09.604Z,16.60
2023-02-05T07:27:42.243Z,20.02
2023-02-05T07:30:15.387Z,14.05
2023-02-05T07:32:47.969Z,15.63
2023-02-05T07:35:20.936Z,4.07
2023-02-05T07:37:53.372Z,2.80
2023-02-05T07:40:26.210Z,3.38
2023-02-05T07:42:58.717Z,2.95
2023-02-05T07:45:32.166Z,3.03
2023-02-05T07:48:05.115Z,3.28
2023-02-05T07:50:38.016Z,2.72
2023-02-05T07:53:10.557Z,3.42
2023-02-05T07:55:43.402Z,2.42
2023-02-05T07:58:16.893Z,1.80
2023-02-05T08:00:49.895Z,3.10
2023-02-05T08:03:23.410Z,2.65
2023-02-05T08:05:56.418Z,2.92
2023-02-05T08:08:28.847Z,2.30
2023-02-05T08:11:05.784Z,3.42
2023-02-05T08:13:38.466Z,3.05
2023-02-05T08:16:11.782Z,2.25
2023-02-05T08:18:48.511Z,3.67
2023-02-05T08:21:22.209Z,2.95
2023-02-05T08:23:57.527Z,2.95
2023-02-05T08:26:30.380Z,3.22
2023-02-05T08:29:03.208Z,2.22
2023-02-05T08:31:36.881Z,4.07
2023-02-05T08:34:09.464Z,2.35
2023-02-05T08:36:42.363Z,2.92
2023-02-05T08:39:14.855Z,2.03
2023-02-05T08:41:47.744Z,1.88
2023-02-05T08:44:20.420Z,1.67
2023-02-05T08:46:53.308Z,3.58
2023-02-05T08:49:26.414Z,2.40
2023-02-05T08:51:59.251Z,3.75
2023-02-05T08:54:31.845Z,4.60
2023-02-05T08:57:04.717Z,7.20
2023-02-05T08:59:37.721Z,3.00
2023-02-05T09:02:14.179Z,2.25
2023-02-05T09:04:46.796Z,3.03
2023-02-05T09:07:19.656Z,3.10
2023-02-05T09:09:52.503Z,3.53
2023-02-05T09:12:25.365Z,3.28
2023-02-05T09:14:58.143Z,5.53
2023-02-05T09:17:49.131Z,5.32
2023-02-05T09:20:22.387Z,4.47
2023-02-05T09:22:55.531Z,5.85
2023-02-05T09:25:30.419Z,4.25
2023-02-05T09:28:03.668Z,3.72
2023-02-05T09:30:42.507Z,6.05
2023-02-05T09:33:15.458Z,2.47
2023-02-05T09:35:47.927Z,2.83
2023-02-05T09:38:20.769Z,2.38
2023-02-05T09:41:00.768Z,8.00
2023-02-05T09:43:52.859Z,1.85
2023-02-05T09:46:40.750Z,2.30
2023-02-05T09:49:13.573Z,1.95
2023-02-05T09:51:47.999Z,2.30
2023-02-05T09:54:28.827Z,3.05
2023-02-05T09:57:05.073Z,2.63
2023-02-05T09:59:42.227Z,3.45
2023-02-05T10:02:23.641Z,3.28
2023-02-05T10:04:56.710Z,2.65
2023-02-05T10:07:29.225Z,2.05
2023-02-05T10:10:16.295Z,2.13
2023-02-05T10:12:57.775Z,2.80
2023-02-05T10:15:30.660Z,3.13
2023-02-05T10:18:21.670Z,3.13
2023-02-05T10:21:00.774Z,2.00
2023-02-05T10:23:46.180Z,2.78
2023-02-05T10:26:19.107Z,2.05
2023-02-05T10:29:12.236Z,2.08
2023-02-05T10:31:53.369Z,2.10
2023-02-05T10:34:41.160Z,3.30
2023-02-05T10:37:18.898Z,1.60
2023-02-05T10:39:51.794Z,1.85
2023-02-05T10:42:29.114Z,2.38
2023-02-05T10:45:13.167Z,2.40
2023-02-05T10:47:52.117Z,3.47
2023-02-05T10:50:30.416Z,2.55
2023-02-05T10:53:03.241Z,2.13
2023-02-05T10:55:36.860Z,3.03
2023-02-05T10:58:21.657Z,1.27
2023-02-05T11:00:54.534Z,1.67
2023-02-05T11:03:27.526Z,2.47
2023-02-05T11:06:00.006Z,1.48
2023-02-05T11:08:35.688Z,2.00
2023-02-05T11:11:16.725Z,2.33
2023-02-05T11:13:54.698Z,1.60
2023-02-05T11:16:37.917Z,1.30
2023-02-05T11:19:24.346Z,1.45
2023-02-05T11:21:56.944Z,1.92
2023-02-05T11:24:29.969Z,1.48
2023-02-05T11:27:19.969Z,1.63
2023-02-05T11:29:53.596Z,1.17
2023-02-05T11:32:37.037Z,1.45
2023-02-05T11:35:10.092Z,1.60
2023-02-05T11:37:42.624Z,2.03
2023-02-05T11:40:29.215Z,1.75
2023-02-05T11:43:04.543Z,2.00
2023-02-05T11:45:39.632Z,1.67
2023-02-05T11:48:25.255Z,2.20
2023-02-05T11:50:58.220Z,1.10
2023-02-05T11:53:33.323Z,5.47
2023-02-05T11:56:12.329Z,3.92
2023-02-05T11:58:57.783Z,1.52
2023-02-05T12:01:34.111Z,1.67
2023-02-05T12:04:12.744Z,1.70
2023-02-05T12:06:59.577Z,2.25
2023-02-05T12:09:32.222Z,1.75
2023-02-05T12:12:06.872Z,1.85
2023-02-05T12:14:44.627Z,2.10
2023-02-05T12:17:17.586Z,1.98
2023-02-05T12:20:08.988Z,1.70
2023-02-05T12:23:00.485Z,2.33
2023-02-05T12:25:37.866Z,2.45
2023-02-05T12:28:32.408Z,2.17
2023-02-05T12:31:10.902Z,1.90
2023-02-05T12:34:15.016Z,2.15
2023-02-05T12:36:59.367Z,1.85
2023-02-05T12:39:38.519Z,2.50
2023-02-05T12:42:12.148Z,1.70
2023-02-05T12:45:02.042Z,1.80
2023-02-05T12:47:53.388Z,1.48
2023-02-05T12:50:26.346Z,1.88
2023-02-05T12:53:04.889Z,1.73
2023-02-05T12:55:46.761Z,3.30
2023-02-05T12:58:20.340Z,1.60
2023-02-05T13:00:54.962Z,2.95
2023-02-05T13:03:28.969Z,2.38
2023-02-05T13:06:05.059Z,2.03
2023-02-05T13:09:03.634Z,2.40
2023-02-05T13:12:05.349Z,2.35
2023-02-05T13:14:44.045Z,2.20
2023-02-05T13:17:22.863Z,2.03
2023-02-05T13:19:59.779Z,1.85
2023-02-05T13:22:54.606Z,1.20
2023-02-05T13:25:52.243Z,2.20
2023-02-05T13:28:43.044Z,1.80
2023-02-05T13:31:27.245Z,1.98
2023-02-05T13:34:05.494Z,2.05
2023-02-05T13:36:56.858Z,1.45
2023-02-05T13:42:26.069Z,3.20
2023-02-05T13:48:03.429Z,2.50
2023-02-05T13:50:49.670Z,1.80
2023-02-05T13:53:28.744Z,2.08
2023-02-05T13:56:04.789Z,2.45
2023-02-05T13:58:58.034Z,2.25
2023-02-05T14:01:40.683Z,1.98
2023-02-05T14:04:16.285Z,3.30
2023-02-05T14:07:00.418Z,2.40
2023-02-05T14:09:38.621Z,2.33
2023-02-05T14:12:13.047Z,1.88
2023-02-05T14:15:05.487Z,2.13
2023-02-05T14:17:38.322Z,1.98
2023-02-05T14:20:22.950Z,2.50
2023-02-05T14:22:58.217Z,2.53
2023-02-05T14:25:39.481Z,2.38
2023-02-05T14:28:15.482Z,2.80
2023-02-05T14:30:51.002Z,2.72
2023-02-05T14:33:37.689Z,4.88
2023-02-05T14:36:19.083Z,3.05
2023-02-05T14:38:57.672Z,2.90
2023-02-05T14:41:31.515Z,3.72
2023-02-05T14:44:04.573Z,3.47
2023-02-05T14:46:43.345Z,3.78
2023-02-05T14:49:26.149Z,2.83
2023-02-05T14:52:00.827Z,3.03
2023-02-05T14:54:43.792Z,3.20
2023-02-05T14:57:25.360Z,2.83
2023-02-05T14:59:58.259Z,3.33
2023-02-05T15:03:07.376Z,2.40
2023-02-05T15:05:41.668Z,2.35
2023-02-05T15:08:34.913Z,2.42
2023-02-05T15:11:10.971Z,3.85
2023-02-05T15:14:03.776Z,3.20
2023-02-05T15:16:38.637Z,5.78
2023-02-05T15:19:11.837Z,6.60
2023-02-05T15:21:47.680Z,3.35
2023-02-05T15:24:21.600Z,3.88
2023-02-05T15:27:02.752Z,4.65
2023-02-05T15:29:42.042Z,3.42
2023-02-05T15:32:17.996Z,2.58
2023-02-05T15:34:52.801Z,2.53
2023-02-05T15:37:30.322Z,3.45
2023-02-05T15:40:21.548Z,3.45
2023-02-05T15:43:12.844Z,2.08
2023-02-05T15:45:45.721Z,3.73
2023-02-05T15:48:25.391Z,3.60
2023-02-05T15:51:00.057Z,4.07
2023-02-05T15:53:35.178Z,2.88
2023-02-05T15:56:22.858Z,4.03
2023-02-05T15:58:58.404Z,19.85
2023-02-05T16:01:37.130Z,18.13
2023-02-05T16:04:17.166Z,13.50
2023-02-05T16:06:49.664Z,15.00
2023-02-05T16:09:24.545Z,14.80
2023-02-05T16:11:57.090Z,12.00
2023-02-05T16:14:30.628Z,12.10
2023-02-05T16:17:09.463Z,12.70
2023-02-05T16:19:48.660Z,13.18
2023-02-05T16:22:26.451Z,10.43
2023-02-05T16:25:01.896Z,8.65
2023-02-05T16:27:45.003Z,11.20
2023-02-05T16:30:24.100Z,8.75
2023-02-05T16:32:58.318Z,8.82
2023-02-05T16:35:34.442Z,8.77
2023-02-05T16:38:13.756Z,7.22
2023-02-05T16:40:48.546Z,11.40
2023-02-05T16:43:40.972Z,11.35
2023-02-05T16:46:14.896Z,8.43
2023-02-05T16:48:47.382Z,7.82
2023-02-05T16:51:26.044Z,9.40
2023-02-05T16:54:00.112Z,12.15
2023-02-05T16:56:36.162Z,11.88
2023-02-05T16:59:16.730Z,9.07
2023-02-05T17:01:50.895Z,12.82
2023-02-05T17:04:27.625Z,10.98
2023-02-05T17:07:01.691Z,16.20
2023-02-05T17:09:35.736Z,17.58
2023-02-05T17:12:27.453Z,21.33
2023-02-05T17:15:00.030Z,17.83
2023-02-05T17:17:32.953Z,16.13
2023-02-05T17:20:18.098Z,17.92
2023-02-05T17:23:05.924Z,18.52
2023-02-05T17:25:40.410Z,16.45
2023-02-05T17:28:15.907Z,16.17
2023-02-05T17:30:49.997Z,13.07
2023-02-05T17:33:24.197Z,13.75
2023-02-05T17:35:57.379Z,10.85
2023-02-05T17:38:30.299Z,11.18
2023-02-05T17:41:20.986Z,8.82
2023-02-05T17:43:53.871Z,8.90
2023-02-05T17:46:26.322Z,9.48
2023-02-05T17:48:59.177Z,9.75
2023-02-05T17:51:31.692Z,12.02
2023-02-05T17:54:04.645Z,9.80
2023-02-05T17:56:38.522Z,11.82
2023-02-05T17:59:15.928Z,23.63
2023-02-05T18:01:48.901Z,20.05
2023-02-05T18:04:21.929Z,18.67
2023-02-05T18:06:54.516Z,15.95
2023-02-05T18:09:27.779Z,25.58
2023-02-05T18:12:00.251Z,19.05
2023-02-05T18:14:33.160Z,18.13
2023-02-05T18:17:05.646Z,19.10
2023-02-05T18:19:38.540Z,24.38
2023-02-05T18:22:11.613Z,19.83
2023-02-05T18:24:44.661Z,15.57
2023-02-05T18:27:17.313Z,13.80
2023-02-05T18:29:50.311Z,15.98
2023-02-05T18:32:22.869Z,16.45
2023-02-05T18:34:55.888Z,15.98
2023-02-05T18:37:28.327Z,16.75
2023-02-05T18:40:01.402Z,12.45
2023-02-05T18:42:34.682Z,15.75
2023-02-05T18:45:07.877Z,17.95
2023-02-05T18:47:40.530Z,15.80
2023-02-05T18:50:13.483Z,22.70
2023-02-05T18:52:46.009Z,21.38
2023-02-05T18:55:19.333Z,18.30
2023-02-05T18:57:52.269Z,20.17
2023-02-05T19:00:25.252Z,18.38
2023-02-05T19:02:58.147Z,16.83
2023-02-05T19:05:31.207Z,15.73
2023-02-05T19:08:05.689Z,15.65
2023-02-05T19:10:39.763Z,11.65
2023-02-05T19:13:12.278Z,10.63
2023-02-05T19:15:45.320Z,12.98
2023-02-05T19:18:18.107Z,13.32
2023-02-05T19:20:50.900Z,13.48
2023-02-05T19:23:23.589Z,16.83
2023-02-05T19:25:56.599Z,12.70
2023-02-05T19:28:30.816Z,9.82
2023-02-05T19:31:06.050Z,7.63
2023-02-05T19:33:39.188Z,7.65
2023-02-05T19:36:12.076Z,11.20
2023-02-05T19:38:44.638Z,11.13
2023-02-05T19:41:18.850Z,10.45
2023-02-05T19:43:52.989Z,11.35
2023-02-05T19:46:27.086Z,12.38
2023-02-05T19:49:01.429Z,11.27
2023-02-05T19:51:34.760Z,11.27
2023-02-05T19:54:07.674Z,10.63
2023-02-05T19:56:41.025Z,10.13
2023-02-05T19:59:13.636Z,14.48
2023-02-05T20:01:46.759Z,13.00
2023-02-05T20:04:22.515Z,11.85
2023-02-05T20:06:57.360Z,13.27
2023-02-05T20:09:32.149Z,11.93
2023-02-05T20:12:05.205Z,13.05
2023-02-05T20:14:38.221Z,12.18
2023-02-05T20:17:16.560Z,14.60
2023-02-05T20:19:49.014Z,10.27
2023-02-05T20:22:22.048Z,9.13
2023-02-05T20:24:54.588Z,20.80
2023-02-05T20:27:27.621Z,16.27
2023-02-05T20:30:18.869Z,12.73
2023-02-05T20:32:51.746Z,16.92
2023-02-05T20:35:24.382Z,26.73
2023-02-05T20:37:57.237Z,19.27
2023-02-05T20:40:29.775Z,19.52
2023-02-05T20:43:05.089Z,15.77
2023-02-05T20:45:37.728Z,9.50
2023-02-05T20:48:10.700Z,9.75
2023-02-05T20:50:43.272Z,15.57
2023-02-05T20:53:16.143Z,13.80
2023-02-05T20:55:51.442Z,19.65
2023-02-05T20:58:24.390Z,14.60
2023-02-05T21:00:57.085Z,13.70
2023-02-05T21:03:30.102Z,15.30
2023-02-05T21:06:02.667Z,14.63
2023-02-05T21:08:38.305Z,15.82
2023-02-05T21:11:11.134Z,12.27
2023-02-05T21:13:45.050Z,12.77
2023-02-05T21:16:18.768Z,15.32
2023-02-05T21:18:52.241Z,12.63
2023-02-05T21:21:28.744Z,10.60
2023-02-05T21:24:03.004Z,24.30
2023-02-05T21:26:37.339Z,28.55
2023-02-05T21:29:11.475Z,21.00
2023-02-05T21:31:46.680Z,38.13
2023-02-05T21:34:22.130Z,45.15
2023-02-05T21:36:55.433Z,53.42
2023-02-05T21:39:28.267Z,33.30
2023-02-05T21:42:00.912Z,32.13
2023-02-05T21:44:33.931Z,27.58
2023-02-05T21:47:07.288Z,32.42
2023-02-05T21:49:40.185Z,32.67
2023-02-05T21:52:12.757Z,30.80
2023-02-05T21:54:49.102Z,33.80
2023-02-05T21:57:22.158Z,26.70
2023-02-05T21:59:55.132Z,26.20
2023-02-05T22:02:27.740Z,19.88
2023-02-05T22:05:00.899Z,20.45
2023-02-05T22:07:33.564Z,21.35
2023-02-05T22:10:06.608Z,23.10
2023-02-05T22:12:39.192Z,33.45
2023-02-05T22:15:13.796Z,22.17
2023-02-05T22:17:46.388Z,17.38
2023-02-05T22:20:19.373Z,26.85
2023-02-05T22:22:51.906Z,29.55
2023-02-05T22:25:24.991Z,25.80
2023-02-05T22:27:57.610Z,26.15
2023-02-05T22:30:30.846Z,25.90
2023-02-05T22:33:03.539Z,22.85
2023-02-05T22:35:37.881Z,21.40
2023-02-05T22:38:10.420Z,21.38
2023-02-05T22:40:43.303Z,18.35
2023-02-05T22:43:15.754Z,21.58
2023-02-05T22:45:48.722Z,16.77
2023-02-05T22:48:21.252Z,19.58
2023-02-05T22:50:54.033Z,19.50
2023-02-05T22:53:26.650Z,20.75
2023-02-05T22:56:03.992Z,21.35
2023-02-05T22:58:38.439Z,24.85
2023-02-05T23:01:12.457Z,26.38
2023-02-05T23:03:47.380Z,30.10
2023-02-05T23:06:22.644Z,26.75
2023-02-05T23:08:56.701Z,24.95
2023-02-05T23:11:30.876Z,21.40
2023-02-05T23:14:04.493Z,21.70
2023-02-05T23:16:39.098Z,21.33
2023-02-05T23:19:13.652Z,21.88
2023-02-05T23:21:46.745Z,24.70
2023-02-05T23:24:19.627Z,23.20
2023-02-05T23:26:53.768Z,23.10
2023-02-05T23:29:27.390Z,28.98
2023-02-05T23:32:00.283Z,25.73
2023-02-05T23:34:36.086Z,28.92
2023-02-05T23:37:09.848Z,26.83
2023-02-05T23:39:42.441Z,24.63
2023-02-05T23:42:15.235Z,24.98
2023-02-05T23:44:47.850Z,22.55
2023-02-05T23:47:20.725Z,20.70
2023-02-05T23:49:53.151Z,24.88
2023-02-05T23:52:26.076Z,26.65
2023-02-05T23:54:58.718Z,23.02
2023-02-05T23:57:31.565Z,20.95
